createdAt,value
2023-05-10T00:01:28.998Z,66.18
2023-05-10T00:06:33.900Z,66.41
2023-05-10T00:11:37.345Z,66.38
2023-05-10T00:16:40.987Z,66.98
2023-05-10T00:21:45.942Z,66.95
2023-05-10T00:26:49.465Z,66.22
2023-05-10T00:31:52.946Z,65.41
2023-05-10T00:36:57.911Z,66.27
2023-05-10T00:42:01.517Z,65.72
2023-05-10T00:47:05.105Z,66.09
2023-05-10T00:52:10.641Z,65.48
2023-05-10T00:57:14.175Z,66.46
2023-05-10T01:02:17.667Z,65.98
2023-05-10T01:07:22.616Z,66.07
2023-05-10T01:12:26.437Z,65.69
2023-05-10T01:17:30.251Z,65.74
2023-05-10T01:22:59.755Z,65.06
2023-05-10T01:28:40.575Z,64.90
2023-05-10T01:33:49.945Z,65.19
2023-05-10T01:38:57.862Z,65.26
2023-05-10T01:44:05.898Z,65.42
2023-05-10T01:49:12.160Z,65.73
2023-05-10T01:54:16.800Z,64.99
2023-05-10T01:59:21.967Z,64.71
2023-05-10T02:04:28.086Z,64.90
2023-05-10T02:09:32.634Z,64.74
2023-05-10T02:14:38.552Z,64.29
2023-05-10T02:19:44.394Z,65.22
2023-05-10T02:24:48.932Z,64.50
2023-05-10T02:29:53.326Z,65.18
2023-05-10T02:34:58.309Z,64.79
2023-05-10T02:40:04.487Z,64.83
2023-05-10T02:45:11.055Z,64.33
2023-05-10T02:50:16.505Z,64.85
2023-05-10T02:55:22.845Z,64.29
2023-05-10T03:00:26.994Z,64.90
2023-05-10T03:05:32.098Z,64.55
2023-05-10T03:10:36.508Z,64.62
2023-05-10T03:15:44.968Z,63.41
2023-05-10T03:20:51.597Z,64.16
2023-05-10T03:25:55.417Z,63.90
2023-05-10T03:30:59.214Z,64.11
2023-05-10T03:36:04.132Z,64.70
2023-05-10T03:41:07.782Z,64.79
2023-05-10T03:46:11.250Z,64.30
2023-05-10T03:51:16.175Z,63.86
2023-05-10T03:56:19.657Z,63.39
2023-05-10T04:01:23.107Z,62.92
2023-05-10T04:06:27.974Z,63.99
2023-05-10T04:11:31.514Z,63.60
2023-05-10T04:16:35.046Z,62.92
2023-05-10T04:21:40.339Z,64.27
2023-05-10T04:26:43.786Z,63.06
2023-05-10T04:31:47.220Z,63.14
2023-05-10T04:36:52.122Z,63.28
2023-05-10T04:41:55.594Z,63.11
2023-05-10T04:46:59.140Z,64.01
2023-05-10T04:52:04.032Z,64.09
2023-05-10T04:57:07.450Z,63.58
2023-05-10T05:02:10.983Z,62.98
2023-05-10T05:07:15.996Z,62.49
2023-05-10T05:12:19.513Z,63.67
2023-05-10T05:17:23.000Z,64.02
2023-05-10T05:22:29.048Z,63.63
2023-05-10T05:27:32.521Z,63.10
2023-05-10T05:32:36.049Z,63.67
2023-05-10T05:37:41.185Z,63.46
2023-05-10T05:42:44.710Z,63.43
2023-05-10T05:47:48.422Z,63.39
2023-05-10T05:52:53.487Z,63.51
2023-05-10T05:57:56.991Z,62.00
2023-05-10T06:03:00.634Z,62.79
2023-05-10T06:08:06.017Z,62.64
2023-05-10T06:13:09.651Z,62.58
2023-05-10T06:18:13.231Z,62.27
2023-05-10T06:23:18.192Z,63.64
2023-05-10T06:28:21.648Z,62.16
2023-05-10T06:33:25.076Z,62.70
2023-05-10T06:38:30.128Z,63.24
2023-05-10T06:43:33.817Z,63.07
2023-05-10T06:48:37.548Z,63.08
2023-05-10T06:53:42.458Z,61.98
2023-05-10T06:58:46.076Z,61.65
2023-05-10T07:03:49.600Z,61.96
2023-05-10T07:08:54.441Z,62.04
2023-05-10T07:13:57.951Z,63.02
2023-05-10T07:19:01.457Z,61.64
2023-05-10T07:24:06.563Z,62.69
2023-05-10T07:29:10.119Z,62.91
2023-05-10T07:34:13.682Z,61.84
2023-05-10T07:39:26.613Z,61.96
2023-05-10T07:44:31.057Z,62.10
2023-05-10T07:49:34.544Z,63.08
2023-05-10T07:54:39.799Z,62.12
2023-05-10T07:59:44.043Z,61.93
2023-05-10T08:04:47.633Z,61.49
2023-05-10T08:09:52.559Z,61.71
2023-05-10T08:14:56.021Z,62.90
2023-05-10T08:19:59.506Z,61.39
2023-05-10T08:25:04.360Z,61.84
2023-05-10T08:30:09.248Z,61.94
2023-05-10T08:35:12.745Z,62.07
2023-05-10T08:40:18.043Z,61.83
2023-05-10T08:45:22.632Z,62.72
2023-05-10T08:50:27.324Z,61.44
2023-05-10T08:55:32.492Z,61.94
2023-05-10T09:00:36.857Z,62.09
2023-05-10T09:05:40.467Z,61.50
2023-05-10T09:10:45.401Z,61.32
2023-05-10T09:15:49.686Z,60.96
2023-05-10T09:20:53.217Z,61.58
2023-05-10T09:26:06.548Z,60.65
2023-05-10T09:31:10.087Z,61.71
2023-05-10T09:36:14.284Z,60.73
2023-05-10T09:41:23.725Z,60.61
2023-05-10T09:46:27.282Z,60.18
2023-05-10T09:51:30.808Z,61.07
2023-05-10T09:56:41.307Z,60.55
2023-05-10T10:01:45.394Z,61.49
2023-05-10T10:06:48.946Z,61.26
2023-05-10T10:11:53.844Z,61.14
2023-05-10T10:17:07.283Z,61.29
2023-05-10T10:22:13.134Z,61.28
2023-05-10T10:27:25.384Z,60.32
2023-05-10T10:32:34.944Z,60.59
2023-05-10T10:37:46.992Z,60.78
2023-05-10T10:42:52.435Z,61.23
2023-05-10T10:48:23.325Z,61.01
2023-05-10T10:53:29.655Z,60.83
2023-05-10T10:58:35.835Z,60.98
2023-05-10T11:03:39.416Z,60.19
2023-05-10T11:08:46.207Z,60.22
2023-05-10T11:13:51.655Z,60.43
2023-05-10T11:18:56.818Z,60.69
2023-05-10T11:24:01.222Z,61.22
2023-05-10T11:29:06.294Z,61.42
2023-05-10T11:34:09.795Z,61.60
2023-05-10T11:39:13.314Z,61.26
2023-05-10T11:44:18.228Z,61.15
2023-05-10T11:49:21.797Z,61.06
2023-05-10T11:54:25.701Z,61.84
2023-05-10T11:59:30.619Z,60.60
2023-05-10T12:04:34.298Z,61.48
2023-05-10T12:09:43.800Z,60.87
2023-05-10T12:14:52.770Z,60.57
2023-05-10T12:19:56.253Z,61.71
2023-05-10T12:25:01.464Z,60.35
2023-05-10T12:30:07.538Z,61.21
2023-05-10T12:35:11.062Z,61.02
2023-05-10T12:40:14.914Z,60.80
2023-05-10T12:45:20.496Z,60.58
2023-05-10T12:50:25.499Z,61.17
2023-05-10T12:55:29.008Z,61.90
2023-05-10T13:00:33.915Z,61.93
2023-05-10T13:05:37.409Z,61.48
2023-05-10T13:10:41.526Z,62.21
2023-05-10T13:15:46.410Z,60.88
2023-05-10T13:20:50.762Z,61.55
2023-05-10T13:25:54.292Z,61.00
2023-05-10T13:31:01.192Z,62.33
2023-05-10T13:36:04.780Z,62.21
2023-05-10T13:41:08.261Z,61.30
2023-05-10T13:46:13.242Z,61.66
2023-05-10T13:51:16.847Z,62.41
2023-05-10T13:56:20.345Z,61.21
2023-05-10T14:01:25.270Z,61.65
2023-05-10T14:06:28.938Z,61.62
2023-05-10T14:11:32.605Z,61.58
2023-05-10T14:16:37.612Z,62.27
2023-05-10T14:21:41.419Z,61.58
2023-05-10T14:26:44.891Z,62.39
2023-05-10T14:31:49.901Z,62.26
2023-05-10T14:36:53.440Z,61.75
2023-05-10T14:41:56.955Z,62.40
2023-05-10T14:47:01.910Z,61.46
2023-05-10T14:52:05.500Z,60.75
2023-05-10T14:57:09.105Z,61.34
2023-05-10T15:02:14.706Z,61.35
2023-05-10T15:07:19.548Z,61.81
2023-05-10T15:12:23.105Z,62.80
2023-05-10T15:17:28.102Z,62.10
2023-05-10T15:22:34.317Z,63.37
2023-05-10T15:27:38.214Z,63.04
2023-05-10T15:32:44.198Z,63.19
2023-05-10T15:37:49.399Z,63.38
2023-05-10T15:42:52.971Z,62.74
2023-05-10T15:47:57.849Z,63.23
2023-05-10T15:53:01.640Z,63.09
2023-05-10T15:58:05.138Z,62.41
2023-05-10T16:03:10.222Z,63.00
2023-05-10T16:08:13.735Z,63.85
2023-05-10T16:13:18.591Z,62.89
2023-05-10T16:18:23.602Z,62.81
2023-05-10T16:23:28.240Z,63.36
2023-05-10T16:28:32.599Z,63.48
2023-05-10T16:33:37.541Z,64.05
2023-05-10T16:38:41.807Z,62.64
2023-05-10T16:43:45.296Z,63.19
2023-05-10T16:48:50.174Z,63.50
2023-05-10T16:53:53.692Z,62.60
2023-05-10T16:58:57.141Z,62.75
2023-05-10T17:04:02.118Z,62.92
2023-05-10T17:09:07.468Z,62.71
2023-05-10T17:14:11.141Z,63.40
2023-05-10T17:19:16.228Z,62.81
2023-05-10T17:24:19.860Z,63.88
2023-05-10T17:29:23.372Z,63.57
2023-05-10T17:34:28.282Z,63.01
2023-05-10T17:39:31.776Z,63.00
2023-05-10T17:44:35.213Z,62.76
2023-05-10T17:49:41.026Z,64.20
2023-05-10T17:54:44.512Z,63.30
2023-05-10T17:59:47.997Z,63.62
2023-05-10T18:04:52.973Z,63.35
2023-05-10T18:09:56.590Z,63.85
2023-05-10T18:15:00.121Z,63.48
2023-05-10T18:20:06.258Z,64.27
2023-05-10T18:25:10.497Z,62.80
2023-05-10T18:30:15.645Z,63.32
2023-05-10T18:35:20.742Z,63.12
2023-05-10T18:40:24.468Z,63.94
2023-05-10T18:45:27.892Z,63.61
2023-05-10T18:50:32.885Z,63.35
2023-05-10T18:55:36.367Z,63.56
2023-05-10T19:00:39.863Z,63.01
2023-05-10T19:05:44.700Z,63.62
2023-05-10T19:10:48.157Z,63.89
2023-05-10T19:16:04.858Z,63.53
2023-05-10T19:21:11.099Z,64.24
2023-05-10T19:26:14.692Z,63.48
2023-05-10T19:31:18.224Z,63.03
2023-05-10T19:36:23.163Z,64.21
2023-05-10T19:41:27.033Z,63.58
2023-05-10T19:46:31.347Z,63.49
2023-05-10T19:51:36.343Z,63.06
2023-05-10T19:56:39.985Z,63.52
2023-05-10T20:01:43.441Z,62.39
2023-05-10T20:06:48.335Z,62.76
2023-05-10T20:11:51.802Z,62.45
2023-05-10T20:16:55.324Z,62.16
2023-05-10T20:22:00.256Z,62.58
2023-05-10T20:27:04.860Z,63.24
2023-05-10T20:32:08.325Z,62.62
2023-05-10T20:37:13.479Z,63.22
2023-05-10T20:42:16.987Z,61.93
2023-05-10T20:47:20.572Z,62.58
2023-05-10T20:52:25.444Z,62.45
2023-05-10T20:57:29.024Z,62.15
2023-05-10T21:02:32.540Z,62.23
2023-05-10T21:07:37.505Z,62.63
2023-05-10T21:12:40.988Z,63.47
2023-05-10T21:17:44.485Z,62.06
2023-05-10T21:22:49.422Z,62.74
2023-05-10T21:27:52.937Z,62.32
2023-05-10T21:32:59.885Z,62.99
2023-05-10T21:38:04.978Z,61.97
2023-05-10T21:43:08.531Z,62.03
2023-05-10T21:48:12.000Z,62.53
2023-05-10T21:53:16.924Z,62.07
2023-05-10T21:58:20.618Z,63.25
2023-05-10T22:03:24.215Z,62.96
2023-05-10T22:08:29.336Z,63.02
2023-05-10T22:13:32.834Z,62.39
2023-05-10T22:18:36.416Z,62.48
2023-05-10T22:23:41.402Z,62.38
2023-05-10T22:28:44.982Z,62.61
2023-05-10T22:33:48.807Z,62.00
2023-05-10T22:38:53.694Z,62.58
2023-05-10T22:43:57.205Z,62.37
2023-05-10T22:49:00.707Z,62.17
2023-05-10T22:54:07.322Z,61.56
2023-05-10T22:59:10.869Z,62.54
2023-05-10T23:04:14.374Z,62.07
2023-05-10T23:09:19.340Z,61.40
2023-05-10T23:14:22.797Z,61.51
2023-05-10T23:19:26.295Z,62.45
2023-05-10T23:24:31.179Z,61.50
2023-05-10T23:29:35.007Z,61.23
2023-05-10T23:34:38.536Z,61.48
2023-05-10T23:39:43.481Z,61.94
2023-05-10T23:44:47.036Z,61.23
2023-05-10T23:49:51.500Z,62.31
2023-05-10T23:54:56.540Z,61.17
